Oro Valley, AZ (85755)

1:34 AM MST on January 30, 2015 (GMT -0700)
KAZOROVA9 | Change Station
CLOSE
Current Station
Personal Weather Station
Location: Oro Valley, AZ
Elevation: 3042 ft
Nearby Weather Stations

Elev 3042 ft 32.47 °N, 110.96 °W | Updated 1 minute ago

Rain
Rain
54.2 °F
Feels Like 54.2 °F
N
6.0
Wind Variable Wind from SSW
Gusts 6.0 mph

Today
High -- | Low -- °F
--% Chance of Precip.
Yesterday
High -- | Low -- °F
Precip. -- in
7:19 AM 5:55 PM
Waxing Gibbous, 81% visible
Pressure 30.01 in
Visibility 8.0 miles
Clouds Scattered Clouds 5000 ft
Dew Point 52 °F
Humidity 91%
Rainfall 0.02 in
Snow Depth Not available.
UV 0 out of 12
Pollen 4.70 out of 12
Air Quality Not available.
Flu Activity Not available.
SPECI KDMA 300830Z AUTO 14014KT 8SM R12/5500FT -RA SCT050 14/11 A3001 RMK AO2 RAB10

More Conditions Fewer Conditions

Pressure 30.01 in
Visibility 8.0 miles
Clouds Scattered Clouds 5000 ft
Dew Point 52 °F
Humidity 91%
Rainfall 0.02 in
Snow Depth Not available.
UV 0 out of 12
Pollen 4.70 out of 12
Air Quality Not available.
Flu Activity Not available.
SPECI KDMA 300830Z AUTO 14014KT 8SM R12/5500FT -RA SCT050 14/11 A3001 RMK AO2 RAB10

More Conditions Fewer Conditions

Nowcast | as of 10:57 PM MST on January 29, 2015

Scattered showers will continue through the overnight hours...moving toward the north and northeast at around 20 mph. Rainfall amounts through 2 am will generally range from a few hundredths up to a quarter of an inch. Isolated heavier amounts may be possible over the higher terrain.

×

10-Day Weather Forecast

Almanac

Astronomy

Jan. 30, 2015 Rise Set
Actual Time
Civil Twilight
Nautical Twilight
Astronomical Twilight
Moon
Length of Visible Light
Length of Day
Tomorrow will be .
, % of the Moon is Illuminated

Today's Extremes

State Highs State Lows

Community

WunderPhotos

Upload Photos

1,791,730 photos uploaded!

WunderBlogs® & News

Nearby

Air Quality

  Air Quality AQ Index Pollutant
Not available.

Snow Depth

Station Depth Elevation

Earthquake Activity

City Distance Mag. Time & Date
Minimum magnitude displayed is 2.5.

Coastal Water Temperatures

Place Temperature

Nearby Weather Stations